createdAt,value
2022-10-14T00:01:58.487Z,11.90
2022-10-14T00:04:25.562Z,11.80
2022-10-14T00:06:52.560Z,11.80
2022-10-14T00:09:19.290Z,11.80
2022-10-14T00:11:46.012Z,11.80
2022-10-14T00:14:14.907Z,11.80
2022-10-14T00:16:42.880Z,11.80
2022-10-14T00:19:10.028Z,11.80
2022-10-14T00:21:37.749Z,11.80
2022-10-14T00:24:05.605Z,11.90
2022-10-14T00:26:36.647Z,11.90
2022-10-14T00:29:04.647Z,12.00
2022-10-14T00:31:31.937Z,12.00
2022-10-14T00:33:58.677Z,12.00
2022-10-14T00:36:25.377Z,12.00
2022-10-14T00:38:52.620Z,12.00
2022-10-14T00:41:25.129Z,12.10
2022-10-14T00:43:54.902Z,12.10
2022-10-14T00:46:21.671Z,12.10
2022-10-14T00:48:51.313Z,12.10
2022-10-14T00:51:18.760Z,12.10
2022-10-14T00:53:47.421Z,12.10
2022-10-14T00:56:15.906Z,12.20
2022-10-14T00:58:43.474Z,12.20
2022-10-14T01:01:10.249Z,12.20
2022-10-14T01:03:37.029Z,12.20
2022-10-14T01:06:09.951Z,12.10
2022-10-14T01:08:43.707Z,12.10
2022-10-14T01:11:17.478Z,12.10
2022-10-14T01:13:48.433Z,12.00
2022-10-14T01:16:23.832Z,11.90
2022-10-14T01:19:01.980Z,11.90
2022-10-14T01:21:42.628Z,11.80
2022-10-14T01:24:21.305Z,11.80
2022-10-14T01:26:54.188Z,11.70
2022-10-14T01:29:23.924Z,11.70
2022-10-14T01:32:06.231Z,11.70
2022-10-14T01:34:44.727Z,11.70
2022-10-14T01:37:15.125Z,11.70
2022-10-14T01:39:47.965Z,11.70
2022-10-14T01:42:16.895Z,11.70
2022-10-14T01:44:47.901Z,11.70
2022-10-14T01:47:16.977Z,11.70
2022-10-14T01:50:07.132Z,11.70
2022-10-14T01:52:40.175Z,11.70
2022-10-14T01:55:11.640Z,11.70
2022-10-14T01:57:40.130Z,11.70
2022-10-14T02:00:07.915Z,11.70
2022-10-14T02:02:40.836Z,11.70
2022-10-14T02:05:15.273Z,11.70
2022-10-14T02:07:44.269Z,11.70
2022-10-14T02:10:12.065Z,11.80
2022-10-14T02:12:57.222Z,11.80
2022-10-14T02:15:38.917Z,11.80
2022-10-14T02:18:30.123Z,11.90
2022-10-14T02:20:59.458Z,11.90
2022-10-14T02:23:28.125Z,11.90
2022-10-14T02:25:56.767Z,11.90
2022-10-14T02:28:25.503Z,11.90
2022-10-14T02:30:55.881Z,11.90
2022-10-14T02:33:24.615Z,11.80
2022-10-14T02:35:51.891Z,11.70
2022-10-14T02:38:19.618Z,11.70
2022-10-14T02:40:48.904Z,11.60
2022-10-14T02:43:15.804Z,11.60
2022-10-14T02:45:43.750Z,11.50
2022-10-14T02:48:11.043Z,11.50
2022-10-14T02:50:38.007Z,11.50
2022-10-14T02:53:05.820Z,11.50
2022-10-14T02:55:32.851Z,11.50
2022-10-14T02:57:59.832Z,11.40
2022-10-14T03:00:26.941Z,11.40
2022-10-14T03:02:55.183Z,11.40
2022-10-14T03:05:22.988Z,11.40
2022-10-14T03:07:49.713Z,11.40
2022-10-14T03:10:19.004Z,11.40
2022-10-14T03:12:46.919Z,11.40
2022-10-14T03:15:23.937Z,11.40
2022-10-14T03:17:51.750Z,11.30
2022-10-14T03:20:23.532Z,11.30
2022-10-14T03:22:54.980Z,11.40
2022-10-14T03:25:24.189Z,11.30
2022-10-14T03:27:59.696Z,11.30
2022-10-14T03:30:38.672Z,11.30
2022-10-14T03:33:14.958Z,11.30
2022-10-14T03:35:51.932Z,11.30
2022-10-14T03:38:26.314Z,11.20
2022-10-14T03:40:53.785Z,11.30
2022-10-14T03:43:20.566Z,11.30
2022-10-14T03:45:54.044Z,11.30
2022-10-14T03:48:23.631Z,11.30
2022-10-14T03:50:50.573Z,11.30
2022-10-14T03:53:20.195Z,11.30
2022-10-14T03:55:47.533Z,11.30
2022-10-14T03:58:14.282Z,11.30
2022-10-14T04:00:47.926Z,11.30
2022-10-14T04:03:28.199Z,11.30
2022-10-14T04:05:56.022Z,11.30
2022-10-14T04:08:25.371Z,11.30
2022-10-14T04:11:17.382Z,11.30
2022-10-14T04:13:45.381Z,11.30
2022-10-14T04:16:12.575Z,11.30
2022-10-14T04:18:57.941Z,11.30
2022-10-14T04:21:24.894Z,11.20
2022-10-14T04:23:53.349Z,11.30
2022-10-14T04:26:31.818Z,11.20
2022-10-14T04:28:58.930Z,11.20
2022-10-14T04:31:34.071Z,11.10
2022-10-14T04:34:03.002Z,11.20
2022-10-14T04:36:34.999Z,11.20
2022-10-14T04:39:04.052Z,11.20
2022-10-14T04:41:30.719Z,11.10
2022-10-14T04:44:00.523Z,11.10
2022-10-14T04:46:36.133Z,11.10
2022-10-14T04:49:03.057Z,11.10
2022-10-14T04:51:34.994Z,11.10
2022-10-14T04:54:34.011Z,11.10
2022-10-14T04:57:01.884Z,11.00
2022-10-14T04:59:29.619Z,11.00
2022-10-14T05:01:56.470Z,11.00
2022-10-14T05:04:31.129Z,10.90
2022-10-14T05:06:59.223Z,10.90
2022-10-14T05:09:26.022Z,10.80
2022-10-14T05:11:52.882Z,10.90
2022-10-14T05:14:23.271Z,10.80
2022-10-14T05:17:01.667Z,10.90
2022-10-14T05:19:31.312Z,10.90
2022-10-14T05:21:58.158Z,10.90
2022-10-14T05:24:31.556Z,10.90
2022-10-14T05:26:58.324Z,10.90
2022-10-14T05:29:27.029Z,11.00
2022-10-14T05:31:54.610Z,11.00
2022-10-14T05:34:47.652Z,10.90
2022-10-14T05:37:23.314Z,10.90
2022-10-14T05:39:52.459Z,10.90
2022-10-14T05:42:23.053Z,10.90
2022-10-14T05:44:53.045Z,10.90
2022-10-14T05:47:20.213Z,10.90
2022-10-14T05:49:51.349Z,10.80
2022-10-14T05:52:19.080Z,10.90
2022-10-14T05:54:46.034Z,10.90
2022-10-14T05:57:17.168Z,11.00
2022-10-14T05:59:44.241Z,11.10
2022-10-14T06:02:12.171Z,11.10
2022-10-14T06:04:42.524Z,11.20
2022-10-14T06:07:10.410Z,11.40
2022-10-14T06:09:38.467Z,11.40
2022-10-14T06:12:05.508Z,11.50
2022-10-14T06:14:32.751Z,11.50
2022-10-14T06:17:00.030Z,11.50
2022-10-14T06:19:26.815Z,11.50
2022-10-14T06:21:53.810Z,11.50
2022-10-14T06:24:20.459Z,11.60
2022-10-14T06:26:48.424Z,11.70
2022-10-14T06:29:15.609Z,11.70
2022-10-14T06:31:42.289Z,11.70
2022-10-14T06:34:09.006Z,11.90
2022-10-14T06:36:36.982Z,11.90
2022-10-14T06:39:04.695Z,12.00
2022-10-14T06:41:32.817Z,12.00
2022-10-14T06:43:59.672Z,12.10
2022-10-14T06:46:26.448Z,12.20
2022-10-14T06:48:53.245Z,12.20
2022-10-14T06:51:20.192Z,12.30
2022-10-14T06:53:47.353Z,12.40
2022-10-14T06:56:14.718Z,12.50
2022-10-14T06:58:41.469Z,12.60
2022-10-14T07:01:08.312Z,12.70
2022-10-14T07:03:36.534Z,12.80
2022-10-14T07:06:04.244Z,12.80
2022-10-14T07:08:31.077Z,13.00
2022-10-14T07:10:57.741Z,13.10
2022-10-14T07:13:24.506Z,13.10
2022-10-14T07:15:52.384Z,13.20
2022-10-14T07:18:19.249Z,13.30
2022-10-14T07:20:47.122Z,13.40
2022-10-14T07:23:14.035Z,13.50
2022-10-14T07:25:41.323Z,13.60
2022-10-14T07:28:08.595Z,13.70
2022-10-14T07:30:35.418Z,13.70
2022-10-14T07:33:02.535Z,13.80
2022-10-14T07:35:29.590Z,13.90
2022-10-14T07:37:58.103Z,14.00
2022-10-14T07:40:25.075Z,14.00
2022-10-14T07:42:51.919Z,14.00
2022-10-14T07:45:20.877Z,14.00
2022-10-14T07:47:49.005Z,14.00
2022-10-14T07:50:17.106Z,14.10
2022-10-14T07:52:43.972Z,14.20
2022-10-14T07:55:10.777Z,14.30
2022-10-14T07:57:40.333Z,14.60
2022-10-14T08:00:07.388Z,14.70
2022-10-14T08:02:39.761Z,14.90
2022-10-14T08:05:36.453Z,15.00
2022-10-14T08:07:53.563Z,15.10
2022-10-14T08:10:20.340Z,15.00
2022-10-14T08:12:47.150Z,15.00
2022-10-14T08:15:13.884Z,15.10
2022-10-14T08:17:40.771Z,15.30
2022-10-14T08:20:07.718Z,15.60
2022-10-14T08:22:34.610Z,16.00
2022-10-14T08:25:01.331Z,16.40
2022-10-14T08:27:28.999Z,16.80
2022-10-14T08:29:55.745Z,17.60
2022-10-14T08:32:23.677Z,18.40
2022-10-14T08:34:50.872Z,19.20
2022-10-14T08:37:17.733Z,19.90
2022-10-14T08:39:44.557Z,21.70
2022-10-14T08:42:30.421Z,23.50
2022-10-14T08:44:59.450Z,24.70
2022-10-14T08:47:31.408Z,25.90
2022-10-14T08:50:21.552Z,25.80
2022-10-14T08:52:50.553Z,24.90
2022-10-14T08:55:28.227Z,23.90
2022-10-14T08:57:58.780Z,23.80
2022-10-14T09:00:25.900Z,24.40
2022-10-14T09:02:52.771Z,24.20
2022-10-14T09:05:21.717Z,24.20
2022-10-14T09:10:47.295Z,25.10
2022-10-14T09:13:27.695Z,24.30
2022-10-14T09:16:00.522Z,23.20
2022-10-14T09:18:30.129Z,22.70
2022-10-14T09:20:58.391Z,23.30
2022-10-14T09:23:27.272Z,25.00
2022-10-14T09:26:05.682Z,25.80
2022-10-14T09:28:38.497Z,26.20
2022-10-14T09:31:06.651Z,26.20
2022-10-14T09:33:38.201Z,26.20
2022-10-14T09:36:19.030Z,25.90
2022-10-14T09:38:53.031Z,25.00
2022-10-14T09:41:22.457Z,23.60
2022-10-14T09:44:07.780Z,22.50
2022-10-14T09:46:35.611Z,21.70
2022-10-14T09:49:02.378Z,22.20
2022-10-14T09:51:33.958Z,22.90
2022-10-14T09:54:04.793Z,22.70
2022-10-14T09:56:31.885Z,22.70
2022-10-14T09:58:59.024Z,23.20
2022-10-14T10:01:27.591Z,23.40
2022-10-14T10:03:55.269Z,23.40
2022-10-14T10:06:25.707Z,23.70
2022-10-14T10:08:55.376Z,23.60
2022-10-14T10:11:37.546Z,22.90
2022-10-14T10:14:24.019Z,22.00
2022-10-14T10:17:06.157Z,21.00
2022-10-14T10:19:34.384Z,21.20
2022-10-14T10:22:22.896Z,22.80
2022-10-14T10:24:52.266Z,23.10
2022-10-14T10:27:20.619Z,22.50
2022-10-14T10:29:47.713Z,21.60
2022-10-14T10:32:42.481Z,20.80
2022-10-14T10:35:12.488Z,20.70
2022-10-14T10:37:48.709Z,21.40
2022-10-14T10:40:34.500Z,22.00
2022-10-14T10:43:11.741Z,22.80
2022-10-14T10:45:43.586Z,22.90
2022-10-14T10:48:17.801Z,22.90
2022-10-14T10:50:47.307Z,22.90
2022-10-14T10:53:21.157Z,22.50
2022-10-14T10:55:54.294Z,21.90
2022-10-14T10:58:41.441Z,21.40
2022-10-14T11:01:21.290Z,21.00
2022-10-14T11:04:06.878Z,20.60
2022-10-14T11:07:07.798Z,20.20
2022-10-14T11:09:58.028Z,19.80
2022-10-14T11:12:28.697Z,19.50
2022-10-14T11:15:08.049Z,19.30
2022-10-14T11:17:47.287Z,19.30
2022-10-14T11:20:22.669Z,19.90
2022-10-14T11:23:08.206Z,21.50
2022-10-14T11:25:55.431Z,23.00
2022-10-14T11:28:27.423Z,24.40
2022-10-14T11:31:01.317Z,25.50
2022-10-14T11:33:40.069Z,26.00
2022-10-14T11:36:16.112Z,24.90
2022-10-14T11:39:02.742Z,23.60
2022-10-14T11:41:45.971Z,22.50
2022-10-14T11:44:24.786Z,21.50
2022-10-14T11:46:53.873Z,20.80
2022-10-14T11:49:22.080Z,20.40
2022-10-14T11:51:52.643Z,20.50
2022-10-14T11:54:30.376Z,20.50
2022-10-14T11:57:00.115Z,20.40
2022-10-14T11:59:47.800Z,20.20
2022-10-14T12:02:19.620Z,20.10
2022-10-14T12:04:52.678Z,20.00
2022-10-14T12:07:23.638Z,19.80
2022-10-14T12:10:13.507Z,19.60
2022-10-14T12:12:41.403Z,19.30
2022-10-14T12:15:14.280Z,19.20
2022-10-14T12:17:53.059Z,19.00
2022-10-14T12:20:25.704Z,18.90
2022-10-14T12:22:53.351Z,18.90
2022-10-14T12:25:23.373Z,19.50
2022-10-14T12:27:52.221Z,20.00
2022-10-14T12:30:31.043Z,20.10
2022-10-14T12:33:05.299Z,20.30
2022-10-14T12:35:50.831Z,20.60
2022-10-14T12:38:19.691Z,20.60
2022-10-14T12:40:49.424Z,20.30
2022-10-14T12:43:21.940Z,20.00
2022-10-14T12:46:08.990Z,19.60
2022-10-14T12:48:36.758Z,19.40
2022-10-14T12:51:06.385Z,19.00
2022-10-14T12:53:33.843Z,18.80
2022-10-14T12:56:01.730Z,18.70
2022-10-14T12:58:28.471Z,18.70
2022-10-14T13:00:56.885Z,18.70
2022-10-14T13:07:39.880Z,18.80
2022-10-14T13:10:46.444Z,19.00
2022-10-14T13:13:32.908Z,19.20
2022-10-14T13:15:59.934Z,19.50
2022-10-14T13:21:53.055Z,19.50
2022-10-14T13:24:50.687Z,19.20
2022-10-14T13:27:43.171Z,19.10
2022-10-14T13:30:22.397Z,19.00
2022-10-14T13:32:52.771Z,19.80
2022-10-14T13:35:34.663Z,21.20
2022-10-14T13:38:03.692Z,22.30
2022-10-14T13:40:34.711Z,23.30
2022-10-14T13:43:08.705Z,24.10
2022-10-14T13:45:42.235Z,24.70
2022-10-14T13:48:17.608Z,24.60
2022-10-14T13:50:46.880Z,23.70
2022-10-14T13:53:18.388Z,22.80
2022-10-14T13:55:51.588Z,22.00
2022-10-14T13:58:22.459Z,21.20
2022-10-14T14:01:00.231Z,20.50
2022-10-14T14:03:37.560Z,19.90
2022-10-14T14:06:13.033Z,19.40
2022-10-14T14:08:45.928Z,19.00
2022-10-14T14:11:39.220Z,18.60
2022-10-14T14:14:15.178Z,18.40
2022-10-14T14:16:48.299Z,18.10
2022-10-14T14:19:31.745Z,17.90
2022-10-14T14:22:13.971Z,17.80
2022-10-14T14:24:40.813Z,17.60
2022-10-14T14:27:14.960Z,17.70
2022-10-14T14:41:23.097Z,20.50
2022-10-14T14:44:13.764Z,20.10
2022-10-14T14:46:40.717Z,19.50
2022-10-14T14:49:07.809Z,19.00
2022-10-14T14:51:35.693Z,18.70
2022-10-14T15:00:22.760Z,17.80
2022-10-14T15:02:56.717Z,17.60
2022-10-14T15:05:24.182Z,17.40
2022-10-14T15:07:50.909Z,17.30
2022-10-14T15:10:22.914Z,17.20
2022-10-14T15:12:55.124Z,17.10
2022-10-14T15:15:27.012Z,17.00
2022-10-14T15:18:05.714Z,16.90
2022-10-14T15:20:35.114Z,16.90
2022-10-14T15:23:02.625Z,16.90
2022-10-14T15:25:30.513Z,16.80
2022-10-14T15:27:57.261Z,16.70
2022-10-14T15:30:36.141Z,16.70
2022-10-14T15:33:15.048Z,16.60
2022-10-14T15:35:42.249Z,16.60
2022-10-14T15:38:18.376Z,16.60
2022-10-14T15:40:46.963Z,16.60
2022-10-14T15:43:24.862Z,16.50
2022-10-14T15:46:14.738Z,16.50
2022-10-14T15:48:45.954Z,16.60
2022-10-14T15:51:19.953Z,16.50
2022-10-14T15:53:47.294Z,16.40
2022-10-14T15:56:13.997Z,16.40
2022-10-14T15:58:40.766Z,16.30
2022-10-14T16:01:07.995Z,16.20
2022-10-14T16:03:38.693Z,16.20
2022-10-14T16:06:10.247Z,16.10
2022-10-14T16:08:38.422Z,16.10
2022-10-14T16:11:10.293Z,16.00
2022-10-14T16:13:36.996Z,15.90
2022-10-14T16:16:05.736Z,15.80
2022-10-14T16:18:32.588Z,15.80
2022-10-14T16:21:00.349Z,15.70
2022-10-14T16:23:31.124Z,15.60
2022-10-14T16:26:00.282Z,15.60
2022-10-14T16:28:27.250Z,15.50
2022-10-14T16:30:54.070Z,15.50
2022-10-14T16:33:21.976Z,15.40
2022-10-14T16:35:53.276Z,15.40
2022-10-14T16:38:20.425Z,15.30
2022-10-14T16:40:54.221Z,15.30
2022-10-14T16:43:20.939Z,15.20
2022-10-14T16:45:47.624Z,15.20
2022-10-14T16:48:14.490Z,15.20
2022-10-14T16:50:41.285Z,15.10
2022-10-14T16:53:26.855Z,15.10
2022-10-14T16:55:56.401Z,15.00
2022-10-14T16:58:25.563Z,15.00
2022-10-14T17:00:52.341Z,15.00
2022-10-14T17:03:19.765Z,14.90
2022-10-14T17:06:00.539Z,14.90
2022-10-14T17:08:27.206Z,14.80
2022-10-14T17:10:58.695Z,14.80
2022-10-14T17:13:25.560Z,14.80
2022-10-14T17:15:58.211Z,14.80
2022-10-14T17:18:25.863Z,14.80
2022-10-14T17:20:59.484Z,14.70
2022-10-14T17:23:28.596Z,14.70
2022-10-14T17:25:55.382Z,14.70
2022-10-14T17:28:22.307Z,14.60
2022-10-14T17:30:49.124Z,14.60
2022-10-14T17:33:16.793Z,14.60
2022-10-14T17:35:43.650Z,14.50
2022-10-14T17:38:10.373Z,14.50
2022-10-14T17:40:37.023Z,14.50
2022-10-14T17:43:03.819Z,14.50
2022-10-14T17:45:30.560Z,14.50
2022-10-14T17:47:57.371Z,14.50
2022-10-14T17:50:26.582Z,14.50
2022-10-14T17:52:53.549Z,14.40
2022-10-14T17:55:20.254Z,14.40
2022-10-14T17:57:47.750Z,14.40
2022-10-14T18:00:14.637Z,14.40
2022-10-14T18:02:41.473Z,14.40
2022-10-14T18:05:08.625Z,14.50
2022-10-14T18:07:37.512Z,14.50
2022-10-14T18:10:04.754Z,14.40
2022-10-14T18:12:32.512Z,14.40
2022-10-14T18:14:59.415Z,14.50
2022-10-14T18:17:26.227Z,14.40
2022-10-14T18:19:53.032Z,14.40
2022-10-14T18:22:19.716Z,14.40
2022-10-14T18:24:46.655Z,14.40
2022-10-14T18:27:13.370Z,14.40
2022-10-14T18:29:40.110Z,14.30
2022-10-14T18:32:06.826Z,14.30
2022-10-14T18:34:33.882Z,14.20
2022-10-14T18:37:00.634Z,14.20
2022-10-14T18:39:27.558Z,14.20
2022-10-14T18:41:54.687Z,14.20
2022-10-14T18:44:21.453Z,14.20
2022-10-14T18:46:48.248Z,14.20
2022-10-14T18:49:15.161Z,14.20
2022-10-14T18:51:42.184Z,14.20
2022-10-14T18:54:12.216Z,14.20
2022-10-14T18:56:39.137Z,14.20
2022-10-14T18:59:08.982Z,14.20
2022-10-14T19:01:36.934Z,14.20
2022-10-14T19:04:05.646Z,14.30
2022-10-14T19:06:33.294Z,14.30
2022-10-14T19:09:03.049Z,14.30
2022-10-14T19:11:30.271Z,14.30
2022-10-14T19:13:57.891Z,14.30
2022-10-14T19:16:32.255Z,14.40
2022-10-14T19:19:00.471Z,14.30
2022-10-14T19:21:30.137Z,14.40
2022-10-14T19:23:58.087Z,14.40
2022-10-14T19:26:26.590Z,14.40
2022-10-14T19:28:53.599Z,14.40
2022-10-14T19:31:21.660Z,14.40
2022-10-14T19:33:48.940Z,14.30
2022-10-14T19:36:16.813Z,14.30
2022-10-14T19:38:49.666Z,14.30
2022-10-14T19:41:16.579Z,14.20
2022-10-14T19:43:43.239Z,14.20
2022-10-14T19:46:10.955Z,14.20
2022-10-14T19:48:38.032Z,14.10
2022-10-14T19:51:07.098Z,14.10
2022-10-14T19:53:34.224Z,14.10
2022-10-14T19:56:04.924Z,14.10
2022-10-14T19:58:31.766Z,14.10
2022-10-14T20:00:58.906Z,14.10
2022-10-14T20:03:26.736Z,14.10
2022-10-14T20:06:00.022Z,14.10
2022-10-14T20:08:27.251Z,14.20
2022-10-14T20:10:53.998Z,14.10
2022-10-14T20:13:21.565Z,14.10
2022-10-14T20:15:55.130Z,14.10
2022-10-14T20:18:22.380Z,14.10
2022-10-14T20:20:49.597Z,14.00
2022-10-14T20:23:17.328Z,14.00
2022-10-14T20:25:44.383Z,14.00
2022-10-14T20:28:12.087Z,13.90
2022-10-14T20:30:39.786Z,13.90
2022-10-14T20:33:06.681Z,14.00
2022-10-14T20:35:33.592Z,13.90
2022-10-14T20:38:00.352Z,13.90
2022-10-14T20:40:27.214Z,13.90
2022-10-14T20:42:54.257Z,13.90
2022-10-14T20:45:21.037Z,13.90
2022-10-14T20:47:53.297Z,13.90
2022-10-14T20:50:21.591Z,13.90
2022-10-14T20:52:48.860Z,13.90
2022-10-14T20:55:15.782Z,13.80
2022-10-14T20:57:42.511Z,13.80
2022-10-14T21:00:09.945Z,13.90
2022-10-14T21:02:36.693Z,13.90
2022-10-14T21:05:03.693Z,13.90
2022-10-14T21:07:30.575Z,13.90
2022-10-14T21:09:57.287Z,13.90
2022-10-14T21:12:24.288Z,13.90
2022-10-14T21:14:51.223Z,13.90
2022-10-14T21:17:17.848Z,13.90
2022-10-14T21:19:44.604Z,13.90
2022-10-14T21:22:11.750Z,13.90
2022-10-14T21:24:41.082Z,13.90
2022-10-14T21:27:07.896Z,13.90
2022-10-14T21:29:34.801Z,13.90
2022-10-14T21:32:02.707Z,13.90
2022-10-14T21:34:30.131Z,13.90
2022-10-14T21:36:57.300Z,13.90
2022-10-14T21:39:24.485Z,13.90
2022-10-14T21:41:52.068Z,13.80
2022-10-14T21:44:19.875Z,13.80
2022-10-14T21:46:47.017Z,13.80
2022-10-14T21:49:13.760Z,13.80
2022-10-14T21:51:40.613Z,13.90
2022-10-14T21:54:07.399Z,13.80
2022-10-14T21:56:34.057Z,13.90
2022-10-14T21:59:00.854Z,13.90
2022-10-14T22:01:28.767Z,13.90
2022-10-14T22:03:58.520Z,13.90
2022-10-14T22:06:25.320Z,13.90
2022-10-14T22:08:53.815Z,13.80
2022-10-14T22:11:20.459Z,13.90
2022-10-14T22:13:47.356Z,13.80
2022-10-14T22:16:16.670Z,13.80
2022-10-14T22:18:47.138Z,13.80
2022-10-14T22:21:15.276Z,13.80
2022-10-14T22:23:42.139Z,13.80
2022-10-14T22:26:11.082Z,13.80
2022-10-14T22:28:38.046Z,13.80
2022-10-14T22:31:12.736Z,13.80
2022-10-14T22:33:39.967Z,13.80
2022-10-14T22:36:10.723Z,13.80
2022-10-14T22:38:38.378Z,13.80
2022-10-14T22:41:05.760Z,13.70
2022-10-14T22:43:33.038Z,13.80
2022-10-14T22:46:01.069Z,13.80
2022-10-14T22:48:29.342Z,13.80
2022-10-14T22:50:56.787Z,13.80
2022-10-14T22:53:23.569Z,13.80
2022-10-14T22:55:53.323Z,13.80
2022-10-14T22:58:20.317Z,13.80
2022-10-14T23:00:47.370Z,13.80
2022-10-14T23:03:14.141Z,13.80
2022-10-14T23:05:40.803Z,13.80
2022-10-14T23:08:12.128Z,13.80
2022-10-14T23:10:39.066Z,13.80
2022-10-14T23:13:06.217Z,13.70
2022-10-14T23:15:33.179Z,13.70
2022-10-14T23:17:59.819Z,13.80
2022-10-14T23:20:26.605Z,13.80
2022-10-14T23:22:53.627Z,13.80
2022-10-14T23:25:20.552Z,13.80
2022-10-14T23:27:47.416Z,13.90
2022-10-14T23:30:14.345Z,13.90
2022-10-14T23:32:41.001Z,13.90
2022-10-14T23:35:08.154Z,13.90
2022-10-14T23:37:34.942Z,13.90
2022-10-14T23:40:01.715Z,13.90
2022-10-14T23:42:28.761Z,14.00
2022-10-14T23:44:55.565Z,14.00
2022-10-14T23:47:22.582Z,14.00
2022-10-14T23:49:49.387Z,14.00
2022-10-14T23:52:16.048Z,14.10
2022-10-14T23:54:42.958Z,14.00
2022-10-14T23:57:09.695Z,14.00
2022-10-14T23:59:36.457Z,14.00
